sensor_id;sensor_type;location;lat;lon;timestamp;pressure;altitude;pressure_sealevel;temperature;humidity
6680;BME280;3376;42.664;23.346;2023-04-03T00:01:35;93929.47;;;9.17;81.35
6680;BME280;3376;42.664;23.346;2023-04-03T00:04:03;93937.59;;;9.29;80.71
6680;BME280;3376;42.664;23.346;2023-04-03T00:06:31;93905.16;;;9.12;80.99
6680;BME280;3376;42.664;23.346;2023-04-03T00:08:58;93924.31;;;9.17;81.94
6680;BME280;3376;42.664;23.346;2023-04-03T00:11:26;93931.44;;;9.15;81.40
6680;BME280;3376;42.664;23.346;2023-04-03T00:13:53;93925.84;;;9.12;82.25
6680;BME280;3376;42.664;23.346;2023-04-03T00:16:20;93926.63;;;9.12;81.23
6680;BME280;3376;42.664;23.346;2023-04-03T00:18:47;93827.28;;;8.44;82.53
6680;BME280;3376;42.664;23.346;2023-04-03T00:21:13;93906.91;;;8.90;82.58
6680;BME280;3376;42.664;23.346;2023-04-03T00:23:41;93915.66;;;8.89;82.35
6680;BME280;3376;42.664;23.346;2023-04-03T00:26:07;93914.56;;;8.84;82.57
6680;BME280;3376;42.664;23.346;2023-04-03T00:28:35;93908.16;;;8.80;83.03
6680;BME280;3376;42.664;23.346;2023-04-03T00:31:03;93912.25;;;8.74;84.02
6680;BME280;3376;42.664;23.346;2023-04-03T00:33:29;93908.25;;;8.72;84.06
6680;BME280;3376;42.664;23.346;2023-04-03T00:35:56;93910.66;;;8.73;84.15
6680;BME280;3376;42.664;23.346;2023-04-03T00:38:23;93923.69;;;8.65;83.39
6680;BME280;3376;42.664;23.346;2023-04-03T00:40:50;93844.78;;;8.19;84.05
6680;BME280;3376;42.664;23.346;2023-04-03T00:43:20;93921.59;;;8.61;84.82
6680;BME280;3376;42.664;23.346;2023-04-03T00:45:49;93914.31;;;8.50;85.67
6680;BME280;3376;42.664;23.346;2023-04-03T00:48:19;93912.97;;;8.39;86.14
6680;BME280;3376;42.664;23.346;2023-04-03T00:50:47;93911.28;;;8.31;87.05
6680;BME280;3376;42.664;23.346;2023-04-03T00:53:18;93915.91;;;8.36;87.59
6680;BME280;3376;42.664;23.346;2023-04-03T00:55:47;93906.88;;;8.17;87.09
6680;BME280;3376;42.664;23.346;2023-04-03T00:58:15;93915.59;;;8.16;88.34
6680;BME280;3376;42.664;23.346;2023-04-03T01:00:49;93923.16;;;8.18;87.72
6680;BME280;3376;42.664;23.346;2023-04-03T01:03:21;93880.34;;;7.94;88.59
6680;BME280;3376;42.664;23.346;2023-04-03T01:05:48;93918.47;;;7.84;89.71
6680;BME280;3376;42.664;23.346;2023-04-03T01:08:15;93923.34;;;7.79;90.34
6680;BME280;3376;42.664;23.346;2023-04-03T01:10:43;93925.97;;;7.71;91.02
6680;BME280;3376;42.664;23.346;2023-04-03T01:13:22;93921.91;;;7.54;91.62
6680;BME280;3376;42.664;23.346;2023-04-03T01:15:51;93897.56;;;7.34;92.27
6680;BME280;3376;42.664;23.346;2023-04-03T01:18:17;93925.75;;;7.58;91.42
6680;BME280;3376;42.664;23.346;2023-04-03T01:24:09;93910.56;;;7.41;92.51
6680;BME280;3376;42.664;23.346;2023-04-03T01:26:38;93909.31;;;7.37;93.35
6680;BME280;3376;42.664;23.346;2023-04-03T01:29:05;93877.06;;;7.18;93.27
6680;BME280;3376;42.664;23.346;2023-04-03T01:31:44;93921.66;;;7.41;93.54
6680;BME280;3376;42.664;23.346;2023-04-03T01:34:11;93923.25;;;7.42;94.10
6680;BME280;3376;42.664;23.346;2023-04-03T01:36:38;93928.41;;;7.42;94.08
6680;BME280;3376;42.664;23.346;2023-04-03T01:39:05;93917.44;;;7.48;93.88
6680;BME280;3376;42.664;23.346;2023-04-03T01:41:32;93917.09;;;7.51;93.24
6680;BME280;3376;42.664;23.346;2023-04-03T01:43:59;93916.41;;;7.57;92.96
6680;BME280;3376;42.664;23.346;2023-04-03T01:46:25;93904.38;;;7.50;93.96
6680;BME280;3376;42.664;23.346;2023-04-03T01:48:54;93913.19;;;7.55;94.74
6680;BME280;3376;42.664;23.346;2023-04-03T01:51:20;93923.50;;;7.55;94.32
6680;BME280;3376;42.664;23.346;2023-04-03T01:53:47;93931.53;;;7.60;94.24
6680;BME280;3376;42.664;23.346;2023-04-03T01:56:14;93926.72;;;7.57;94.55
6680;BME280;3376;42.664;23.346;2023-04-03T01:58:41;93932.16;;;7.62;94.82
6680;BME280;3376;42.664;23.346;2023-04-03T02:01:07;93923.22;;;7.50;95.59
6680;BME280;3376;42.664;23.346;2023-04-03T02:03:34;93900.59;;;7.38;95.42
6680;BME280;3376;42.664;23.346;2023-04-03T02:06:03;93898.75;;;7.46;94.70
6680;BME280;3376;42.664;23.346;2023-04-03T02:08:30;93913.78;;;7.65;94.06
6680;BME280;3376;42.664;23.346;2023-04-03T02:10:57;93930.38;;;7.85;93.35
6680;BME280;3376;42.664;23.346;2023-04-03T02:13:24;93923.09;;;7.89;93.09
6680;BME280;3376;42.664;23.346;2023-04-03T02:15:50;93916.44;;;7.94;92.49
6680;BME280;3376;42.664;23.346;2023-04-03T02:18:17;93924.28;;;8.01;91.77
6680;BME280;3376;42.664;23.346;2023-04-03T02:20:44;93935.94;;;8.11;91.67
6680;BME280;3376;42.664;23.346;2023-04-03T02:23:14;93924.38;;;8.07;90.75
6680;BME280;3376;42.664;23.346;2023-04-03T02:25:40;93916.78;;;7.91;91.41
6680;BME280;3376;42.664;23.346;2023-04-03T02:28:07;93914.84;;;7.93;92.43
6680;BME280;3376;42.664;23.346;2023-04-03T02:30:34;93916.72;;;7.99;91.88
6680;BME280;3376;42.664;23.346;2023-04-03T02:33:01;93905.50;;;7.92;90.43
6680;BME280;3376;42.664;23.346;2023-04-03T02:35:27;93912.00;;;7.88;91.17
6680;BME280;3376;42.664;23.346;2023-04-03T02:37:54;93910.78;;;7.76;91.84
6680;BME280;3376;42.664;23.346;2023-04-03T02:40:22;93894.19;;;7.56;93.00
6680;BME280;3376;42.664;23.346;2023-04-03T02:42:49;93911.19;;;7.65;92.82
6680;BME280;3376;42.664;23.346;2023-04-03T02:45:16;93915.16;;;7.53;93.23
6680;BME280;3376;42.664;23.346;2023-04-03T02:47:43;93908.25;;;7.46;92.94
6680;BME280;3376;42.664;23.346;2023-04-03T02:50:10;93906.56;;;7.38;94.30
6680;BME280;3376;42.664;23.346;2023-04-03T02:52:37;93895.44;;;7.38;94.61
6680;BME280;3376;42.664;23.346;2023-04-03T02:55:04;93879.13;;;7.23;94.75
6680;BME280;3376;42.664;23.346;2023-04-03T02:57:32;93892.06;;;7.37;95.39
6680;BME280;3376;42.664;23.346;2023-04-03T02:59:59;93882.97;;;7.27;95.32
6680;BME280;3376;42.664;23.346;2023-04-03T03:02:26;93896.25;;;7.38;95.39
6680;BME280;3376;42.664;23.346;2023-04-03T03:04:52;93884.31;;;7.37;94.68
6680;BME280;3376;42.664;23.346;2023-04-03T03:07:19;93867.25;;;7.22;95.52
6680;BME280;3376;42.664;23.346;2023-04-03T03:09:46;93886.97;;;7.29;95.59
6680;BME280;3376;42.664;23.346;2023-04-03T03:12:13;93894.03;;;7.35;94.91
6680;BME280;3376;42.664;23.346;2023-04-03T03:14:41;93883.59;;;7.29;95.09
6680;BME280;3376;42.664;23.346;2023-04-03T03:17:08;93883.75;;;7.27;95.38
6680;BME280;3376;42.664;23.346;2023-04-03T03:19:34;93877.84;;;7.18;96.28
6680;BME280;3376;42.664;23.346;2023-04-03T03:22:01;93885.94;;;7.15;96.60
6680;BME280;3376;42.664;23.346;2023-04-03T03:24:28;93887.06;;;7.13;95.73
6680;BME280;3376;42.664;23.346;2023-04-03T03:26:55;93884.53;;;7.05;96.75
6680;BME280;3376;42.664;23.346;2023-04-03T03:29:22;93774.09;;;6.34;97.25
6680;BME280;3376;42.664;23.346;2023-04-03T03:31:50;93881.38;;;6.95;97.85
6680;BME280;3376;42.664;23.346;2023-04-03T03:34:17;93836.00;;;6.71;98.25
6680;BME280;3376;42.664;23.346;2023-04-03T03:36:43;93882.31;;;7.02;96.94
6680;BME280;3376;42.664;23.346;2023-04-03T03:39:10;93885.56;;;6.96;97.12
6680;BME280;3376;42.664;23.346;2023-04-03T03:41:37;93901.97;;;6.95;97.86
6680;BME280;3376;42.664;23.346;2023-04-03T03:44:04;93891.47;;;7.04;97.67
6680;BME280;3376;42.664;23.346;2023-04-03T03:46:31;93879.34;;;7.13;96.72
6680;BME280;3376;42.664;23.346;2023-04-03T03:48:59;93878.25;;;7.07;96.64
6680;BME280;3376;42.664;23.346;2023-04-03T03:51:26;93773.94;;;6.36;96.87
6680;BME280;3376;42.664;23.346;2023-04-03T03:53:52;93861.50;;;6.81;97.33
6680;BME280;3376;42.664;23.346;2023-04-03T03:56:20;93885.25;;;6.91;97.26
6680;BME280;3376;42.664;23.346;2023-04-03T03:58:47;93853.72;;;6.66;97.91
6680;BME280;3376;42.664;23.346;2023-04-03T04:01:14;93890.44;;;6.83;98.75
6680;BME280;3376;42.664;23.346;2023-04-03T04:03:42;93894.19;;;6.72;99.31
6680;BME280;3376;42.664;23.346;2023-04-03T04:06:10;93892.13;;;6.68;99.93
6680;BME280;3376;42.664;23.346;2023-04-03T04:08:37;93889.91;;;6.65;99.92
6680;BME280;3376;42.664;23.346;2023-04-03T04:11:03;93802.47;;;6.18;99.61
6680;BME280;3376;42.664;23.346;2023-04-03T04:13:30;93870.00;;;6.51;99.98
6680;BME280;3376;42.664;23.346;2023-04-03T04:15:57;93878.69;;;6.58;99.90
6680;BME280;3376;42.664;23.346;2023-04-03T04:18:24;93895.00;;;6.73;99.64
6680;BME280;3376;42.664;23.346;2023-04-03T04:20:51;93764.03;;;5.86;99.98
6680;BME280;3376;42.664;23.346;2023-04-03T04:23:19;93903.84;;;6.70;100.00
6680;BME280;3376;42.664;23.346;2023-04-03T04:25:46;93902.78;;;6.65;100.00
6680;BME280;3376;42.664;23.346;2023-04-03T04:28:14;93903.75;;;6.56;100.00
6680;BME280;3376;42.664;23.346;2023-04-03T04:30:41;93894.75;;;6.60;100.00
6680;BME280;3376;42.664;23.346;2023-04-03T04:33:07;93894.72;;;6.68;100.00
6680;BME280;3376;42.664;23.346;2023-04-03T04:35:35;93900.97;;;6.73;100.00
6680;BME280;3376;42.664;23.346;2023-04-03T04:38:02;93919.28;;;6.78;100.00
6680;BME280;3376;42.664;23.346;2023-04-03T04:40:30;93910.75;;;6.78;100.00
6680;BME280;3376;42.664;23.346;2023-04-03T04:42:57;93915.44;;;6.74;100.00
6680;BME280;3376;42.664;23.346;2023-04-03T04:45:24;93918.94;;;6.81;100.00
6680;BME280;3376;42.664;23.346;2023-04-03T04:47:50;93914.56;;;6.90;100.00
6680;BME280;3376;42.664;23.346;2023-04-03T04:50:18;93915.84;;;6.94;100.00
6680;BME280;3376;42.664;23.346;2023-04-03T04:52:45;93925.69;;;7.13;100.00
6680;BME280;3376;42.664;23.346;2023-04-03T04:55:12;93931.16;;;7.18;99.61
6680;BME280;3376;42.664;23.346;2023-04-03T04:57:40;93926.47;;;7.22;99.45
6680;BME280;3376;42.664;23.346;2023-04-03T05:00:08;93926.19;;;7.39;97.41
6680;BME280;3376;42.664;23.346;2023-04-03T05:02:34;93935.06;;;7.37;97.84
6680;BME280;3376;42.664;23.346;2023-04-03T05:05:01;93934.38;;;7.43;97.67
6680;BME280;3376;42.664;23.346;2023-04-03T05:07:28;93925.25;;;7.32;97.65
6680;BME280;3376;42.664;23.346;2023-04-03T05:09:55;93943.78;;;7.58;96.75
6680;BME280;3376;42.664;23.346;2023-04-03T05:12:22;93959.88;;;7.60;96.77
6680;BME280;3376;42.664;23.346;2023-04-03T05:14:50;93960.53;;;7.54;97.15
6680;BME280;3376;42.664;23.346;2023-04-03T05:17:17;93954.00;;;7.74;96.42
6680;BME280;3376;42.664;23.346;2023-04-03T05:19:43;93957.06;;;7.92;96.02
6680;BME280;3376;42.664;23.346;2023-04-03T05:22:10;93949.41;;;7.84;95.81
6680;BME280;3376;42.664;23.346;2023-04-03T05:24:37;93932.09;;;7.93;95.48
6680;BME280;3376;42.664;23.346;2023-04-03T05:27:04;93924.72;;;8.04;94.13
6680;BME280;3376;42.664;23.346;2023-04-03T05:29:31;93930.88;;;8.18;93.46
6680;BME280;3376;42.664;23.346;2023-04-03T05:31:59;93954.28;;;8.39;92.56
6680;BME280;3376;42.664;23.346;2023-04-03T05:34:26;93956.66;;;8.41;91.95
6680;BME280;3376;42.664;23.346;2023-04-03T05:36:53;93953.66;;;8.52;92.27
6680;BME280;3376;42.664;23.346;2023-04-03T05:39:20;93957.41;;;8.64;92.28
6680;BME280;3376;42.664;23.346;2023-04-03T05:41:48;93947.63;;;8.74;91.98
6680;BME280;3376;42.664;23.346;2023-04-03T05:44:14;93962.38;;;8.80;92.82
6680;BME280;3376;42.664;23.346;2023-04-03T05:46:41;93947.78;;;8.87;92.29
6680;BME280;3376;42.664;23.346;2023-04-03T05:49:09;93944.56;;;8.99;92.46
6680;BME280;3376;42.664;23.346;2023-04-03T05:51:37;93938.88;;;9.04;92.49
6680;BME280;3376;42.664;23.346;2023-04-03T05:54:08;93939.38;;;9.14;91.34
6680;BME280;3376;42.664;23.346;2023-04-03T05:56:36;93941.94;;;9.28;89.96
6680;BME280;3376;42.664;23.346;2023-04-03T05:59:03;93944.84;;;9.40;88.59
6680;BME280;3376;42.664;23.346;2023-04-03T06:01:29;93944.03;;;9.54;87.48
6680;BME280;3376;42.664;23.346;2023-04-03T06:03:56;93941.81;;;9.72;87.11
6680;BME280;3376;42.664;23.346;2023-04-03T06:06:25;93928.97;;;9.79;86.10
6680;BME280;3376;42.664;23.346;2023-04-03T06:08:52;93943.06;;;9.97;84.48
6680;BME280;3376;42.664;23.346;2023-04-03T06:11:18;93938.72;;;10.04;85.79
6680;BME280;3376;42.664;23.346;2023-04-03T06:13:46;93926.66;;;10.11;83.14
6680;BME280;3376;42.664;23.346;2023-04-03T06:16:14;93926.59;;;10.26;83.21
6680;BME280;3376;42.664;23.346;2023-04-03T06:18:41;93924.28;;;10.37;81.49
6680;BME280;3376;42.664;23.346;2023-04-03T06:21:08;93878.84;;;10.07;82.54
6680;BME280;3376;42.664;23.346;2023-04-03T06:23:36;93929.06;;;10.40;80.91
6680;BME280;3376;42.664;23.346;2023-04-03T06:26:03;93896.78;;;10.36;79.02
6680;BME280;3376;42.664;23.346;2023-04-03T06:28:30;93932.66;;;10.39;81.32
6680;BME280;3376;42.664;23.346;2023-04-03T06:30:57;93938.34;;;10.56;80.01
6680;BME280;3376;42.664;23.346;2023-04-03T06:33:24;93945.59;;;10.67;78.26
6680;BME280;3376;42.664;23.346;2023-04-03T06:35:55;93937.91;;;10.52;76.89
6680;BME280;3376;42.664;23.346;2023-04-03T06:38:23;93957.44;;;10.48;77.42
6680;BME280;3376;42.664;23.346;2023-04-03T06:40:51;93957.97;;;10.44;79.68
6680;BME280;3376;42.664;23.346;2023-04-03T06:43:19;93950.31;;;10.57;77.90
6680;BME280;3376;42.664;23.346;2023-04-03T06:45:45;93927.28;;;10.41;77.97
6680;BME280;3376;42.664;23.346;2023-04-03T06:48:12;93935.94;;;10.54;80.48
6680;BME280;3376;42.664;23.346;2023-04-03T06:50:39;93920.81;;;10.58;78.45
6680;BME280;3376;42.664;23.346;2023-04-03T06:53:06;93794.34;;;9.93;77.07
6680;BME280;3376;42.664;23.346;2023-04-03T06:55:33;93948.91;;;10.89;78.29
6680;BME280;3376;42.664;23.346;2023-04-03T06:58:02;93951.34;;;10.97;80.32
6680;BME280;3376;42.664;23.346;2023-04-03T07:00:29;93945.34;;;10.96;79.23
6680;BME280;3376;42.664;23.346;2023-04-03T07:02:56;93823.47;;;10.29;81.89
6680;BME280;3376;42.664;23.346;2023-04-03T07:05:23;93951.63;;;11.15;77.76
6680;BME280;3376;42.664;23.346;2023-04-03T07:07:50;93953.47;;;11.21;76.45
6680;BME280;3376;42.664;23.346;2023-04-03T07:10:17;93906.94;;;11.06;75.46
6680;BME280;3376;42.664;23.346;2023-04-03T07:12:43;93945.34;;;11.43;75.40
6680;BME280;3376;42.664;23.346;2023-04-03T07:15:12;93941.38;;;11.41;75.47
6680;BME280;3376;42.664;23.346;2023-04-03T07:17:39;93904.03;;;11.29;74.82
6680;BME280;3376;42.664;23.346;2023-04-03T07:20:08;93928.81;;;11.44;74.36
6680;BME280;3376;42.664;23.346;2023-04-03T07:22:35;93938.03;;;11.60;74.07
6680;BME280;3376;42.664;23.346;2023-04-03T07:25:01;93902.13;;;11.57;74.09
6680;BME280;3376;42.664;23.346;2023-04-03T07:27:28;93913.53;;;11.69;nan
6680;BME280;3376;42.664;23.346;2023-04-03T07:29:55;93924.88;;;11.61;72.67
6680;BME280;3376;42.664;23.346;2023-04-03T07:32:24;93931.13;;;11.73;72.79
6680;BME280;3376;42.664;23.346;2023-04-03T07:34:51;93918.97;;;11.87;71.58
6680;BME280;3376;42.664;23.346;2023-04-03T07:37:18;93923.34;;;11.93;72.12
6680;BME280;3376;42.664;23.346;2023-04-03T07:39:44;93919.97;;;11.99;71.62
6680;BME280;3376;42.664;23.346;2023-04-03T07:42:11;93920.56;;;12.21;70.24
6680;BME280;3376;42.664;23.346;2023-04-03T07:44:38;93906.19;;;12.31;69.67
6680;BME280;3376;42.664;23.346;2023-04-03T07:47:05;93914.00;;;12.44;69.58
6680;BME280;3376;42.664;23.346;2023-04-03T07:49:34;93908.38;;;12.47;69.67
6680;BME280;3376;42.664;23.346;2023-04-03T07:52:03;93907.56;;;12.66;68.16
6680;BME280;3376;42.664;23.346;2023-04-03T07:54:30;93920.75;;;12.58;68.43
6680;BME280;3376;42.664;23.346;2023-04-03T07:56:57;93904.16;;;12.59;67.33
6680;BME280;3376;42.664;23.346;2023-04-03T07:59:24;93908.53;;;12.78;67.14
6680;BME280;3376;42.664;23.346;2023-04-03T08:01:51;93889.13;;;12.81;66.56
6680;BME280;3376;42.664;23.346;2023-04-03T08:04:18;93905.28;;;13.03;66.28
6680;BME280;3376;42.664;23.346;2023-04-03T08:06:46;93882.66;;;12.96;65.81
6680;BME280;3376;42.664;23.346;2023-04-03T08:09:14;93905.47;;;13.08;65.27
6680;BME280;3376;42.664;23.346;2023-04-03T08:11:42;93912.44;;;13.14;65.95
6680;BME280;3376;42.664;23.346;2023-04-03T08:14:09;93905.59;;;13.26;65.35
6680;BME280;3376;42.664;23.346;2023-04-03T08:16:41;93897.53;;;13.34;64.49
6680;BME280;3376;42.664;23.346;2023-04-03T08:19:08;93800.00;;;12.67;64.14
6680;BME280;3376;42.664;23.346;2023-04-03T08:21:36;93918.09;;;13.48;63.97
6680;BME280;3376;42.664;23.346;2023-04-03T08:24:04;93913.06;;;13.53;63.18
6680;BME280;3376;42.664;23.346;2023-04-03T08:26:31;93782.13;;;12.84;63.05
6680;BME280;3376;42.664;23.346;2023-04-03T08:28:58;93902.19;;;13.63;63.23
6680;BME280;3376;42.664;23.346;2023-04-03T08:31:28;93783.78;;;12.72;62.72
6680;BME280;3376;42.664;23.346;2023-04-03T08:33:56;93900.06;;;13.53;63.16
6680;BME280;3376;42.664;23.346;2023-04-03T08:36:24;93899.00;;;13.67;63.75
6680;BME280;3376;42.664;23.346;2023-04-03T08:38:52;93880.09;;;13.78;63.22
6680;BME280;3376;42.664;23.346;2023-04-03T08:41:29;93881.81;;;13.91;63.33
6680;BME280;3376;42.664;23.346;2023-04-03T08:44:02;93877.09;;;14.06;62.52
6680;BME280;3376;42.664;23.346;2023-04-03T08:46:40;93886.25;;;14.15;62.04
6680;BME280;3376;42.664;23.346;2023-04-03T08:49:13;93883.78;;;14.20;61.22
6680;BME280;3376;42.664;23.346;2023-04-03T08:51:43;93884.38;;;14.22;61.61
6680;BME280;3376;42.664;23.346;2023-04-03T08:54:23;93886.16;;;14.28;60.93
6680;BME280;3376;42.664;23.346;2023-04-03T08:56:53;93857.44;;;14.10;60.64
6680;BME280;3376;42.664;23.346;2023-04-03T08:59:26;93845.41;;;14.09;61.45
6680;BME280;3376;42.664;23.346;2023-04-03T09:01:54;93875.38;;;14.18;61.50
6680;BME280;3376;42.664;23.346;2023-04-03T09:04:22;93849.78;;;14.15;60.82
6680;BME280;3376;42.664;23.346;2023-04-03T09:06:52;93854.25;;;14.08;60.00
6680;BME280;3376;42.664;23.346;2023-04-03T09:09:30;93830.84;;;13.77;60.75
6680;BME280;3376;42.664;23.346;2023-04-03T09:12:09;93838.34;;;13.91;61.57
6680;BME280;3376;42.664;23.346;2023-04-03T09:14:39;93846.84;;;14.05;61.78
6680;BME280;3376;42.664;23.346;2023-04-03T09:17:15;93832.22;;;14.04;61.11
6680;BME280;3376;42.664;23.346;2023-04-03T09:19:51;93847.69;;;14.24;60.63
6680;BME280;3376;42.664;23.346;2023-04-03T09:22:23;93847.00;;;14.35;59.33
6680;BME280;3376;42.664;23.346;2023-04-03T09:24:57;93845.78;;;14.37;59.48
6680;BME280;3376;42.664;23.346;2023-04-03T09:27:27;93818.00;;;14.25;58.83
6680;BME280;3376;42.664;23.346;2023-04-03T09:29:55;93837.69;;;14.27;59.12
6680;BME280;3376;42.664;23.346;2023-04-03T09:32:26;93839.34;;;14.15;59.37
6680;BME280;3376;42.664;23.346;2023-04-03T09:34:55;93827.91;;;14.16;60.68
6680;BME280;3376;42.664;23.346;2023-04-03T09:37:38;93805.94;;;14.12;59.62
6680;BME280;3376;42.664;23.346;2023-04-03T09:40:12;93830.91;;;14.44;59.11
6680;BME280;3376;42.664;23.346;2023-04-03T09:42:56;93834.22;;;14.69;58.54
6680;BME280;3376;42.664;23.346;2023-04-03T09:45:26;93827.94;;;14.77;57.28
6680;BME280;3376;42.664;23.346;2023-04-03T09:48:05;93789.28;;;14.56;56.54
6680;BME280;3376;42.664;23.346;2023-04-03T09:50:33;93822.66;;;14.83;56.58
6680;BME280;3376;42.664;23.346;2023-04-03T09:53:05;93817.31;;;14.78;56.71
6680;BME280;3376;42.664;23.346;2023-04-03T09:55:42;93817.88;;;14.80;56.33
6680;BME280;3376;42.664;23.346;2023-04-03T09:58:25;93788.69;;;14.54;54.05
6680;BME280;3376;42.664;23.346;2023-04-03T10:00:55;93810.94;;;14.56;55.08
6680;BME280;3376;42.664;23.346;2023-04-03T10:03:25;93793.53;;;14.32;55.26
6680;BME280;3376;42.664;23.346;2023-04-03T10:05:52;93798.38;;;14.29;56.10
6680;BME280;3376;42.664;23.346;2023-04-03T10:08:22;93799.25;;;14.16;57.81
6680;BME280;3376;42.664;23.346;2023-04-03T10:11:07;93801.72;;;14.11;59.44
6680;BME280;3376;42.664;23.346;2023-04-03T10:13:49;93782.59;;;13.99;60.40
6680;BME280;3376;42.664;23.346;2023-04-03T10:16:18;93806.25;;;13.97;61.86
6680;BME280;3376;42.664;23.346;2023-04-03T10:18:49;93795.25;;;13.95;61.16
6680;BME280;3376;42.664;23.346;2023-04-03T10:21:29;93798.91;;;13.88;61.81
6680;BME280;3376;42.664;23.346;2023-04-03T10:24:08;93773.13;;;13.80;61.50
6680;BME280;3376;42.664;23.346;2023-04-03T10:26:44;93779.47;;;13.90;61.34
6680;BME280;3376;42.664;23.346;2023-04-03T10:29:25;93780.50;;;14.07;61.09
6680;BME280;3376;42.664;23.346;2023-04-03T10:32:02;93781.38;;;14.01;60.39
6680;BME280;3376;42.664;23.346;2023-04-03T10:34:40;93772.38;;;13.97;60.66
6680;BME280;3376;42.664;23.346;2023-04-03T10:37:16;93780.28;;;14.09;60.37
6680;BME280;3376;42.664;23.346;2023-04-03T10:39:54;93773.22;;;14.16;59.02
6680;BME280;3376;42.664;23.346;2023-04-03T10:42:29;93761.75;;;13.99;58.19
6680;BME280;3376;42.664;23.346;2023-04-03T10:45:15;93732.13;;;13.75;58.35
6680;BME280;3376;42.664;23.346;2023-04-03T10:47:53;93752.88;;;13.64;58.56
6680;BME280;3376;42.664;23.346;2023-04-03T10:50:31;93752.91;;;13.57;59.20
6680;BME280;3376;42.664;23.346;2023-04-03T10:53:06;93748.19;;;13.48;59.51
6680;BME280;3376;42.664;23.346;2023-04-03T10:55:43;93740.22;;;13.43;59.67
6680;BME280;3376;42.664;23.346;2023-04-03T10:58:14;93759.50;;;13.60;60.26
6680;BME280;3376;42.664;23.346;2023-04-03T11:00:48;93758.31;;;13.56;59.98
6680;BME280;3376;42.664;23.346;2023-04-03T11:03:26;93770.50;;;13.62;60.21
6680;BME280;3376;42.664;23.346;2023-04-03T11:06:00;93633.88;;;12.72;60.67
6680;BME280;3376;42.664;23.346;2023-04-03T11:08:33;93775.38;;;13.52;61.41
6680;BME280;3376;42.664;23.346;2023-04-03T11:11:06;93773.03;;;13.13;63.99
6680;BME280;3376;42.664;23.346;2023-04-03T11:13:38;93776.28;;;12.95;66.13
6680;BME280;3376;42.664;23.346;2023-04-03T11:16:15;93764.56;;;12.79;68.33
6680;BME280;3376;42.664;23.346;2023-04-03T11:18:47;93775.81;;;12.73;69.47
6680;BME280;3376;42.664;23.346;2023-04-03T11:21:19;93774.56;;;12.76;71.04
6680;BME280;3376;42.664;23.346;2023-04-03T11:23:49;93758.63;;;12.66;72.44
6680;BME280;3376;42.664;23.346;2023-04-03T11:26:19;93765.69;;;12.52;74.53
6680;BME280;3376;42.664;23.346;2023-04-03T11:28:52;93761.09;;;12.54;76.82
6680;BME280;3376;42.664;23.346;2023-04-03T11:31:32;93769.88;;;12.53;80.50
6680;BME280;3376;42.664;23.346;2023-04-03T11:34:11;93761.47;;;12.51;81.39
6680;BME280;3376;42.664;23.346;2023-04-03T11:36:44;93763.69;;;12.48;82.23
6680;BME280;3376;42.664;23.346;2023-04-03T11:39:20;93755.88;;;12.48;82.85
6680;BME280;3376;42.664;23.346;2023-04-03T11:41:49;93740.22;;;12.23;84.90
6680;BME280;3376;42.664;23.346;2023-04-03T11:44:32;93753.16;;;12.30;86.26
6680;BME280;3376;42.664;23.346;2023-04-03T11:47:02;93760.16;;;12.29;88.19
6680;BME280;3376;42.664;23.346;2023-04-03T11:49:58;93764.38;;;12.24;90.40
6680;BME280;3376;42.664;23.346;2023-04-03T11:55:52;93762.22;;;12.08;93.35
6680;BME280;3376;42.664;23.346;2023-04-03T11:58:20;93765.63;;;12.08;93.86
6680;BME280;3376;42.664;23.346;2023-04-03T12:01:06;93762.84;;;11.90;94.93
6680;BME280;3376;42.664;23.346;2023-04-03T12:04:04;93764.84;;;11.75;97.71
6680;BME280;3376;42.664;23.346;2023-04-03T12:06:53;93763.28;;;11.74;99.47
6680;BME280;3376;42.664;23.346;2023-04-03T12:09:27;93746.06;;;11.47;100.00
6680;BME280;3376;42.664;23.346;2023-04-03T12:11:55;93755.63;;;11.40;100.00
6680;BME280;3376;42.664;23.346;2023-04-03T12:14:23;93760.03;;;11.46;100.00
6680;BME280;3376;42.664;23.346;2023-04-03T12:16:53;93764.41;;;11.32;100.00
6680;BME280;3376;42.664;23.346;2023-04-03T12:19:36;93758.63;;;11.30;100.00
6680;BME280;3376;42.664;23.346;2023-04-03T12:22:11;93758.84;;;11.35;100.00
6680;BME280;3376;42.664;23.346;2023-04-03T12:24:40;93704.38;;;11.03;100.00
6680;BME280;3376;42.664;23.346;2023-04-03T12:27:38;93741.88;;;11.20;100.00
6680;BME280;3376;42.664;23.346;2023-04-03T12:30:13;93745.88;;;11.22;100.00
6680;BME280;3376;42.664;23.346;2023-04-03T12:32:51;93736.88;;;11.12;100.00
6680;BME280;3376;42.664;23.346;2023-04-03T12:35:28;93739.63;;;10.97;100.00
6680;BME280;3376;42.664;23.346;2023-04-03T12:41:11;93733.69;;;10.97;100.00
6680;BME280;3376;42.664;23.346;2023-04-03T12:43:48;93690.00;;;10.74;100.00
6680;BME280;3376;42.664;23.346;2023-04-03T12:46:19;93716.91;;;10.99;100.00
6680;BME280;3376;42.664;23.346;2023-04-03T12:48:49;93701.38;;;10.93;100.00
6680;BME280;3376;42.664;23.346;2023-04-03T12:51:20;93714.94;;;11.01;100.00
6680;BME280;3376;42.664;23.346;2023-04-03T12:53:49;93706.56;;;10.99;100.00
6680;BME280;3376;42.664;23.346;2023-04-03T12:56:20;93634.78;;;10.54;100.00
6680;BME280;3376;42.664;23.346;2023-04-03T12:58:47;93704.56;;;10.95;100.00
6680;BME280;3376;42.664;23.346;2023-04-03T13:01:16;93667.06;;;10.71;100.00
6680;BME280;3376;42.664;23.346;2023-04-03T13:03:45;93692.38;;;10.89;100.00
6680;BME280;3376;42.664;23.346;2023-04-03T13:06:19;93688.81;;;10.96;100.00
6680;BME280;3376;42.664;23.346;2023-04-03T13:08:50;93714.34;;;11.06;100.00
6680;BME280;3376;42.664;23.346;2023-04-03T13:11:18;93691.56;;;10.82;100.00
6680;BME280;3376;42.664;23.346;2023-04-03T13:13:57;93701.56;;;10.85;100.00
6680;BME280;3376;42.664;23.346;2023-04-03T13:16:25;93690.56;;;10.69;100.00
6680;BME280;3376;42.664;23.346;2023-04-03T13:18:53;93712.50;;;10.74;100.00
6680;BME280;3376;42.664;23.346;2023-04-03T13:21:24;93712.69;;;10.65;100.00
6680;BME280;3376;42.664;23.346;2023-04-03T13:23:54;93672.19;;;10.38;100.00
6680;BME280;3376;42.664;23.346;2023-04-03T13:26:24;93702.69;;;10.56;100.00
6680;BME280;3376;42.664;23.346;2023-04-03T13:28:53;93696.31;;;10.52;100.00
6680;BME280;3376;42.664;23.346;2023-04-03T13:31:25;93692.91;;;10.45;100.00
6680;BME280;3376;42.664;23.346;2023-04-03T13:33:55;93590.16;;;9.79;100.00
6680;BME280;3376;42.664;23.346;2023-04-03T13:36:26;93594.31;;;9.80;100.00
6680;BME280;3376;42.664;23.346;2023-04-03T13:39:03;93700.47;;;10.40;100.00